createdAt,value
2019-05-26T00:01:51.394Z,16.37
2019-05-26T00:04:21.785Z,16.00
2019-05-26T00:06:52.157Z,16.65
2019-05-26T00:09:22.517Z,15.23
2019-05-26T00:11:52.976Z,15.15
2019-05-26T00:14:23.274Z,15.73
2019-05-26T00:16:53.615Z,15.83
2019-05-26T00:19:23.845Z,17.20
2019-05-26T00:21:54.297Z,16.67
2019-05-26T00:24:24.728Z,16.75
2019-05-26T00:26:55.139Z,16.63
2019-05-26T00:29:25.675Z,15.68
2019-05-26T00:31:56.027Z,15.90
2019-05-26T00:34:26.265Z,15.90
2019-05-26T00:36:56.706Z,15.63
2019-05-26T00:39:27.117Z,16.50
2019-05-26T00:41:57.355Z,15.75
2019-05-26T00:44:27.820Z,15.68
2019-05-26T00:46:58.156Z,15.53
2019-05-26T00:49:28.591Z,15.53
2019-05-26T00:51:58.792Z,15.10
2019-05-26T00:54:28.909Z,15.68
2019-05-26T00:56:59.816Z,15.10
2019-05-26T00:59:30.145Z,14.73
2019-05-26T01:02:01.191Z,15.53
2019-05-26T01:04:31.834Z,15.60
2019-05-26T01:07:02.141Z,14.40
2019-05-26T01:09:32.608Z,14.53
2019-05-26T01:12:03.168Z,14.00
2019-05-26T01:14:33.421Z,13.78
2019-05-26T01:17:03.857Z,14.30
2019-05-26T01:19:34.126Z,13.95
2019-05-26T01:22:04.550Z,13.98
2019-05-26T01:24:34.929Z,14.68
2019-05-26T01:27:05.205Z,14.70
2019-05-26T01:29:35.551Z,14.53
2019-05-26T01:32:05.775Z,14.45
2019-05-26T01:34:36.116Z,14.98
2019-05-26T01:37:07.320Z,15.10
2019-05-26T01:39:37.830Z,14.45
2019-05-26T01:42:08.347Z,14.83
2019-05-26T01:44:38.746Z,14.60
2019-05-26T01:47:09.248Z,14.60
2019-05-26T01:49:39.670Z,14.77
2019-05-26T01:52:09.928Z,14.03
2019-05-26T01:54:41.099Z,13.93
2019-05-26T01:57:11.576Z,14.10
2019-05-26T01:59:41.826Z,14.03
2019-05-26T02:02:12.061Z,14.03
2019-05-26T02:04:42.518Z,13.60
2019-05-26T02:07:13.058Z,14.13
2019-05-26T02:09:43.779Z,13.72
2019-05-26T02:12:13.985Z,13.80
2019-05-26T02:14:44.638Z,13.15
2019-05-26T02:17:14.983Z,13.95
2019-05-26T02:19:45.313Z,13.98
2019-05-26T02:22:15.713Z,12.98
2019-05-26T02:24:45.987Z,12.75
2019-05-26T02:27:16.186Z,13.08
2019-05-26T02:29:46.559Z,13.53
2019-05-26T02:32:16.897Z,12.98
2019-05-26T02:34:47.401Z,12.53
2019-05-26T02:37:17.912Z,13.58
2019-05-26T02:39:48.193Z,12.88
2019-05-26T02:42:18.486Z,12.55
2019-05-26T02:44:48.903Z,12.45
2019-05-26T02:47:19.266Z,12.70
2019-05-26T02:49:49.601Z,13.05
2019-05-26T02:52:19.926Z,12.75
2019-05-26T02:54:50.275Z,12.88
2019-05-26T02:57:20.756Z,12.60
2019-05-26T02:59:50.964Z,12.75
2019-05-26T03:02:21.231Z,13.25
2019-05-26T03:04:51.790Z,12.67
2019-05-26T03:07:22.941Z,13.05
2019-05-26T03:09:53.688Z,12.70
2019-05-26T03:12:25.261Z,13.05
2019-05-26T03:14:58.148Z,13.10
2019-05-26T03:17:29.919Z,12.68
2019-05-26T03:20:02.216Z,12.73
2019-05-26T03:22:33.754Z,12.35
2019-05-26T03:25:06.168Z,12.47
2019-05-26T03:27:36.653Z,12.73
2019-05-26T03:30:09.169Z,12.82
2019-05-26T03:32:39.770Z,12.85
2019-05-26T03:35:11.495Z,12.60
2019-05-26T03:37:41.710Z,12.58
2019-05-26T03:40:12.611Z,12.43
2019-05-26T03:42:43.008Z,12.10
2019-05-26T03:45:16.006Z,12.58
2019-05-26T03:47:46.416Z,12.45
2019-05-26T03:50:16.829Z,12.85
2019-05-26T03:52:47.176Z,13.08
2019-05-26T03:55:17.331Z,12.40
2019-05-26T03:57:47.711Z,12.43
2019-05-26T04:00:18.454Z,14.10
2019-05-26T04:02:48.788Z,13.32
2019-05-26T04:05:19.149Z,12.60
2019-05-26T04:07:49.479Z,12.60
2019-05-26T04:10:20.227Z,12.50
2019-05-26T04:12:50.592Z,12.45
2019-05-26T04:15:20.890Z,12.13
2019-05-26T04:17:51.232Z,12.00
2019-05-26T04:20:21.548Z,12.28
2019-05-26T04:22:51.826Z,13.88
2019-05-26T04:25:22.112Z,13.28
2019-05-26T04:27:52.896Z,12.73
2019-05-26T04:30:23.142Z,13.35
2019-05-26T04:32:53.606Z,13.97
2019-05-26T04:35:24.087Z,16.35
2019-05-26T04:37:54.425Z,12.90
2019-05-26T04:40:26.999Z,12.88
2019-05-26T04:42:56.543Z,12.50
2019-05-26T04:45:26.877Z,13.20
2019-05-26T04:47:57.256Z,12.33
2019-05-26T04:50:27.863Z,12.88
2019-05-26T04:53:06.389Z,12.85
2019-05-26T04:55:30.031Z,12.20
2019-05-26T04:58:00.766Z,12.98
2019-05-26T05:00:31.369Z,13.13
2019-05-26T05:03:02.103Z,13.05
2019-05-26T05:05:32.528Z,13.03
2019-05-26T05:08:02.511Z,12.40
2019-05-26T05:10:41.800Z,12.00
2019-05-26T05:13:04.773Z,12.40
2019-05-26T05:15:35.366Z,12.15
2019-05-26T05:18:05.763Z,12.43
2019-05-26T05:20:36.506Z,12.58
2019-05-26T05:23:06.971Z,13.10
2019-05-26T05:25:37.564Z,12.65
2019-05-26T05:28:08.329Z,13.28
2019-05-26T05:30:39.074Z,12.23
2019-05-26T05:33:11.021Z,12.90
2019-05-26T05:35:41.585Z,12.25
2019-05-26T05:38:12.024Z,13.93
2019-05-26T05:40:58.332Z,13.73
2019-05-26T05:43:14.792Z,12.37
2019-05-26T05:47:31.922Z,12.70
2019-05-26T05:50:02.612Z,11.83
2019-05-26T05:52:33.043Z,12.78
2019-05-26T05:55:03.464Z,12.13
2019-05-26T05:57:33.208Z,12.15
2019-05-26T06:00:04.068Z,12.00
2019-05-26T06:02:34.697Z,12.35
2019-05-26T06:05:06.549Z,12.43
2019-05-26T06:07:37.186Z,13.22
2019-05-26T06:10:10.284Z,13.18
2019-05-26T06:12:40.975Z,12.98
2019-05-26T06:15:14.426Z,12.57
2019-05-26T06:17:45.198Z,13.30
2019-05-26T06:20:16.838Z,12.43
2019-05-26T06:22:47.267Z,12.70
2019-05-26T06:25:18.528Z,12.58
2019-05-26T06:27:49.481Z,12.88
2019-05-26T06:30:21.260Z,13.62
2019-05-26T06:32:51.993Z,13.10
2019-05-26T06:35:23.112Z,12.82
2019-05-26T06:37:53.884Z,13.43
2019-05-26T06:40:24.710Z,13.05
2019-05-26T06:42:55.232Z,13.80
2019-05-26T06:45:25.575Z,13.40
2019-05-26T06:47:55.814Z,12.70
2019-05-26T06:50:26.102Z,13.58
2019-05-26T06:52:56.531Z,13.37
2019-05-26T06:55:27.074Z,13.90
2019-05-26T06:57:57.601Z,12.95
2019-05-26T07:00:27.915Z,13.32
2019-05-26T07:02:58.225Z,13.50
2019-05-26T07:05:28.412Z,13.70
2019-05-26T07:07:58.770Z,13.62
2019-05-26T07:10:29.347Z,13.40
2019-05-26T07:12:59.541Z,12.80
2019-05-26T07:15:30.102Z,12.80
2019-05-26T07:18:00.609Z,12.68
2019-05-26T07:20:32.206Z,12.95
2019-05-26T07:23:03.784Z,12.80
2019-05-26T07:25:35.447Z,12.50
2019-05-26T07:28:06.027Z,13.20
2019-05-26T07:30:36.242Z,13.20
2019-05-26T07:33:06.981Z,12.75
2019-05-26T07:35:37.181Z,13.30
2019-05-26T07:38:07.213Z,13.30
2019-05-26T07:40:37.791Z,13.30
2019-05-26T07:43:07.976Z,13.10
2019-05-26T07:45:38.405Z,13.70
2019-05-26T07:48:08.788Z,13.15
2019-05-26T07:50:39.121Z,12.60
2019-05-26T07:53:09.218Z,12.75
2019-05-26T07:55:39.640Z,12.90
2019-05-26T07:58:09.903Z,12.73
2019-05-26T08:00:40.309Z,12.63
2019-05-26T08:03:10.569Z,13.03
2019-05-26T08:05:40.848Z,12.78
2019-05-26T08:08:13.154Z,12.80
2019-05-26T08:10:42.955Z,13.32
2019-05-26T08:13:13.308Z,13.15
2019-05-26T08:15:43.997Z,13.57
2019-05-26T08:18:14.254Z,13.55
2019-05-26T08:20:44.554Z,14.00
2019-05-26T08:23:14.922Z,13.65
2019-05-26T08:25:45.465Z,13.35
2019-05-26T08:28:15.686Z,13.40
2019-05-26T08:30:45.778Z,13.45
2019-05-26T08:33:16.196Z,13.78
2019-05-26T08:35:46.576Z,13.78
2019-05-26T08:38:16.864Z,13.63
2019-05-26T08:40:47.526Z,13.80
2019-05-26T08:43:17.672Z,13.20
2019-05-26T08:45:47.933Z,13.60
2019-05-26T08:48:18.516Z,13.43
2019-05-26T08:50:48.929Z,13.22
2019-05-26T08:53:19.116Z,13.65
2019-05-26T08:55:49.503Z,13.72
2019-05-26T08:58:19.948Z,12.95
2019-05-26T09:00:50.143Z,13.08
2019-05-26T09:03:20.810Z,13.62
2019-05-26T09:05:50.895Z,12.97
2019-05-26T09:08:21.483Z,12.95
2019-05-26T09:10:51.716Z,13.10
2019-05-26T09:13:21.970Z,14.10
2019-05-26T09:15:52.720Z,12.75
2019-05-26T09:18:22.892Z,13.03
2019-05-26T09:20:53.083Z,13.60
2019-05-26T09:23:23.557Z,13.28
2019-05-26T09:25:53.841Z,13.65
2019-05-26T09:28:24.162Z,14.37
2019-05-26T09:30:54.575Z,14.30
2019-05-26T09:33:24.770Z,13.80
2019-05-26T09:35:55.264Z,12.63
2019-05-26T09:38:25.824Z,12.23
2019-05-26T09:40:56.184Z,11.97
2019-05-26T09:43:26.608Z,12.93
2019-05-26T09:45:56.857Z,12.82
2019-05-26T09:48:27.039Z,12.63
2019-05-26T09:50:57.535Z,13.03
2019-05-26T09:53:27.850Z,13.50
2019-05-26T09:55:58.158Z,13.57
2019-05-26T09:58:28.535Z,13.48
2019-05-26T10:00:58.786Z,13.38
2019-05-26T10:03:29.088Z,13.07
2019-05-26T10:05:59.590Z,12.80
2019-05-26T10:08:29.826Z,13.08
2019-05-26T10:11:00.111Z,13.10
2019-05-26T10:13:32.070Z,13.00
2019-05-26T10:16:02.420Z,12.85
2019-05-26T10:18:32.776Z,13.13
2019-05-26T10:21:03.139Z,13.30
2019-05-26T10:23:33.393Z,13.35
2019-05-26T10:26:03.720Z,13.18
2019-05-26T10:28:33.951Z,13.37
2019-05-26T10:31:04.299Z,14.87
2019-05-26T10:33:34.613Z,15.10
2019-05-26T10:36:04.973Z,15.43
2019-05-26T10:38:35.406Z,15.70
2019-05-26T10:41:05.691Z,16.15
2019-05-26T10:43:46.757Z,16.37
2019-05-26T10:46:07.375Z,16.40
2019-05-26T10:48:37.817Z,16.90
2019-05-26T10:51:08.023Z,17.15
2019-05-26T10:53:38.379Z,16.70
2019-05-26T10:56:08.685Z,17.67
2019-05-26T10:58:38.846Z,18.10
2019-05-26T11:01:09.190Z,18.55
2019-05-26T11:03:39.288Z,19.00
2019-05-26T11:06:09.649Z,19.10
2019-05-26T11:08:40.056Z,19.35
2019-05-26T11:11:10.179Z,20.23
2019-05-26T11:13:40.927Z,20.37
2019-05-26T11:16:11.388Z,20.30
2019-05-26T11:18:41.592Z,21.10
2019-05-26T11:21:12.602Z,19.98
2019-05-26T11:23:42.885Z,19.67
2019-05-26T11:26:13.325Z,18.92
2019-05-26T11:28:43.662Z,19.80
2019-05-26T11:31:13.886Z,19.67
2019-05-26T11:33:44.023Z,19.25
2019-05-26T11:36:14.672Z,18.67
2019-05-26T11:38:44.900Z,17.82
2019-05-26T11:41:15.261Z,17.00
2019-05-26T11:43:45.851Z,17.37
2019-05-26T11:46:16.766Z,18.70
2019-05-26T11:48:47.352Z,21.27
2019-05-26T11:51:17.749Z,22.05
2019-05-26T11:53:48.059Z,21.53
2019-05-26T11:56:18.321Z,19.65
2019-05-26T11:58:48.583Z,19.57
2019-05-26T12:01:22.501Z,18.30
2019-05-26T12:03:50.532Z,19.05
2019-05-26T12:06:20.750Z,19.02
2019-05-26T12:08:50.976Z,19.15
2019-05-26T12:11:21.447Z,19.90
2019-05-26T12:13:51.800Z,19.52
2019-05-26T12:16:22.026Z,20.68
2019-05-26T12:18:52.262Z,19.02
2019-05-26T12:21:22.654Z,18.20
2019-05-26T12:23:55.032Z,18.73
2019-05-26T12:26:24.597Z,18.00
2019-05-26T12:28:55.133Z,19.70
2019-05-26T12:31:25.619Z,20.43
2019-05-26T12:33:55.924Z,20.40
2019-05-26T12:36:26.136Z,20.70
2019-05-26T12:38:56.409Z,20.17
2019-05-26T12:41:26.856Z,20.65
2019-05-26T12:43:57.290Z,19.48
2019-05-26T12:46:27.374Z,18.45
2019-05-26T12:48:57.628Z,18.48
2019-05-26T12:51:28.039Z,17.97
2019-05-26T12:53:58.290Z,17.60
2019-05-26T12:56:28.710Z,17.37
2019-05-26T12:58:59.602Z,18.50
2019-05-26T13:01:29.988Z,17.65
2019-05-26T13:04:00.690Z,18.17
2019-05-26T13:06:31.195Z,17.67
2019-05-26T13:09:01.634Z,17.90
2019-05-26T13:11:32.377Z,18.17
2019-05-26T13:14:03.198Z,18.27
2019-05-26T13:16:35.818Z,18.13
2019-05-26T13:19:06.013Z,19.33
2019-05-26T13:21:36.291Z,18.77
2019-05-26T13:24:07.212Z,19.67
2019-05-26T13:26:37.425Z,19.60
2019-05-26T13:29:07.885Z,20.07
2019-05-26T13:31:38.072Z,19.70
2019-05-26T13:34:08.585Z,19.82
2019-05-26T13:36:38.930Z,19.02
2019-05-26T13:39:10.113Z,19.13
2019-05-26T13:41:40.770Z,19.40
2019-05-26T13:44:11.076Z,19.42
2019-05-26T13:46:41.384Z,19.35
2019-05-26T13:49:11.807Z,19.27
2019-05-26T13:51:42.049Z,19.32
2019-05-26T13:54:12.408Z,19.05
2019-05-26T13:56:42.824Z,19.65
2019-05-26T13:59:13.001Z,20.37
2019-05-26T14:01:43.509Z,20.77
2019-05-26T14:04:13.895Z,21.85
2019-05-26T14:06:44.206Z,21.90
2019-05-26T14:09:14.649Z,22.32
2019-05-26T14:11:45.186Z,21.90
2019-05-26T14:14:15.460Z,20.85
2019-05-26T14:16:48.221Z,20.17
2019-05-26T14:19:19.392Z,19.52
2019-05-26T14:21:49.699Z,19.73
2019-05-26T14:24:20.131Z,18.85
2019-05-26T14:26:50.304Z,18.80
2019-05-26T14:29:20.670Z,18.40
2019-05-26T14:31:52.867Z,17.75
2019-05-26T14:34:23.018Z,18.00
2019-05-26T14:36:53.212Z,17.20
2019-05-26T14:39:23.559Z,17.48
2019-05-26T14:41:53.747Z,17.67
2019-05-26T14:44:24.015Z,17.17
2019-05-26T14:46:54.361Z,16.95
2019-05-26T14:49:24.709Z,17.27
2019-05-26T14:51:55.091Z,17.05
2019-05-26T14:54:25.290Z,17.23
2019-05-26T14:56:55.873Z,17.23
2019-05-26T14:59:26.008Z,16.62
2019-05-26T15:01:56.463Z,16.52
2019-05-26T15:04:26.892Z,16.27
2019-05-26T15:06:57.162Z,16.67
2019-05-26T15:09:27.782Z,16.40
2019-05-26T15:11:58.069Z,16.77
2019-05-26T15:14:28.191Z,16.05
2019-05-26T15:16:58.454Z,16.17
2019-05-26T15:19:28.800Z,16.50
2019-05-26T15:21:59.000Z,15.95
2019-05-26T15:24:29.416Z,16.20
2019-05-26T15:27:00.226Z,16.00
2019-05-26T15:29:30.457Z,15.70
2019-05-26T15:32:02.696Z,16.02
2019-05-26T15:34:32.861Z,15.60
2019-05-26T15:37:03.010Z,16.80
2019-05-26T15:39:33.235Z,16.05
2019-05-26T15:42:03.697Z,15.90
2019-05-26T15:44:34.147Z,16.12
2019-05-26T15:47:04.374Z,15.68
2019-05-26T15:49:34.703Z,16.05
2019-05-26T15:52:05.085Z,15.68
2019-05-26T15:54:35.323Z,15.63
2019-05-26T15:57:05.829Z,15.25
2019-05-26T15:59:36.131Z,14.90
2019-05-26T16:02:06.708Z,15.50
2019-05-26T16:04:36.922Z,15.13
2019-05-26T16:07:07.526Z,14.98
2019-05-26T16:09:37.820Z,15.15
2019-05-26T16:12:08.185Z,14.80
2019-05-26T16:14:38.914Z,15.30
2019-05-26T16:17:09.422Z,15.05
2019-05-26T16:19:39.616Z,15.13
2019-05-26T16:22:10.156Z,14.87
2019-05-26T16:24:40.368Z,15.60
2019-05-26T16:27:19.137Z,15.27
2019-05-26T16:29:42.308Z,14.80
2019-05-26T16:32:12.467Z,15.00
2019-05-26T16:34:43.315Z,15.70
2019-05-26T16:37:13.705Z,14.95
2019-05-26T16:39:44.033Z,14.87
2019-05-26T16:42:14.362Z,15.70
2019-05-26T16:44:44.549Z,15.65
2019-05-26T16:47:14.874Z,15.15
2019-05-26T16:49:45.023Z,15.00
2019-05-26T16:52:15.466Z,14.83
2019-05-26T16:54:45.881Z,14.95
2019-05-26T16:57:16.202Z,14.50
2019-05-26T16:59:46.512Z,15.15
2019-05-26T17:02:16.847Z,14.93
2019-05-26T17:04:47.112Z,14.85
2019-05-26T17:07:17.235Z,15.53
2019-05-26T17:09:47.633Z,14.80
2019-05-26T17:12:17.984Z,15.47
2019-05-26T17:14:48.387Z,15.70
2019-05-26T17:17:18.692Z,15.53
2019-05-26T17:19:52.115Z,15.45
2019-05-26T17:22:20.456Z,15.40
2019-05-26T17:24:50.949Z,14.60
2019-05-26T17:27:21.238Z,15.20
2019-05-26T17:29:51.546Z,14.93
2019-05-26T17:32:22.048Z,15.40
2019-05-26T17:34:52.306Z,15.08
2019-05-26T17:37:22.866Z,14.98
2019-05-26T17:39:53.219Z,15.18
2019-05-26T17:42:23.557Z,15.08
2019-05-26T17:44:53.772Z,15.43
2019-05-26T17:47:30.166Z,14.35
2019-05-26T17:49:55.788Z,14.98
2019-05-26T17:52:26.240Z,15.50
2019-05-26T17:54:56.605Z,15.10
2019-05-26T17:57:26.915Z,14.53
2019-05-26T17:59:57.098Z,14.60
2019-05-26T18:02:27.263Z,15.30
2019-05-26T18:04:57.563Z,14.90
2019-05-26T18:07:27.948Z,15.37
2019-05-26T18:09:58.202Z,14.75
2019-05-26T18:12:28.607Z,15.50
2019-05-26T18:14:58.761Z,15.08
2019-05-26T18:17:28.944Z,14.87
2019-05-26T18:20:00.579Z,14.78
2019-05-26T18:22:31.177Z,15.08
2019-05-26T18:25:01.418Z,14.75
2019-05-26T18:27:31.885Z,15.15
2019-05-26T18:30:02.145Z,14.80
2019-05-26T18:32:32.417Z,15.25
2019-05-26T18:35:02.740Z,15.70
2019-05-26T18:37:33.271Z,14.73
2019-05-26T18:40:03.894Z,15.13
2019-05-26T18:42:34.468Z,15.05
2019-05-26T18:45:05.649Z,15.23
2019-05-26T18:47:36.003Z,14.45
2019-05-26T18:50:07.530Z,14.60
2019-05-26T18:52:37.991Z,15.48
2019-05-26T18:55:09.306Z,14.80
2019-05-26T18:57:39.498Z,15.30
2019-05-26T19:00:10.427Z,15.27
2019-05-26T19:02:40.983Z,14.83
2019-05-26T19:05:11.467Z,15.05
2019-05-26T19:07:41.771Z,15.63
2019-05-26T19:10:12.581Z,15.70
2019-05-26T19:12:42.820Z,15.65
2019-05-26T19:15:13.601Z,15.70
2019-05-26T19:17:43.807Z,15.70
2019-05-26T19:20:16.531Z,15.88
2019-05-26T19:22:46.235Z,15.83
2019-05-26T19:25:16.779Z,15.78
2019-05-26T19:27:47.152Z,15.70
2019-05-26T19:30:17.782Z,15.28
2019-05-26T19:32:48.198Z,16.27
2019-05-26T19:35:18.419Z,15.28
2019-05-26T19:37:48.941Z,15.32
2019-05-26T19:40:19.664Z,15.68
2019-05-26T19:42:49.776Z,15.55
2019-05-26T19:45:20.274Z,15.60
2019-05-26T19:47:50.698Z,15.85
2019-05-26T19:50:21.233Z,16.80
2019-05-26T19:52:51.555Z,15.63
2019-05-26T19:55:21.833Z,16.25
2019-05-26T19:57:52.263Z,16.07
2019-05-26T20:00:22.846Z,17.40
2019-05-26T20:02:53.198Z,16.40
2019-05-26T20:05:23.631Z,16.10
2019-05-26T20:07:53.855Z,16.20
2019-05-26T20:10:24.619Z,16.85
2019-05-26T20:12:54.894Z,16.60
2019-05-26T20:15:25.006Z,16.15
2019-05-26T20:17:55.363Z,16.12
2019-05-26T20:20:25.680Z,16.12
2019-05-26T20:22:56.013Z,16.37
2019-05-26T20:25:26.469Z,17.55
2019-05-26T20:27:56.770Z,15.93
2019-05-26T20:30:27.290Z,16.37
2019-05-26T20:32:57.727Z,17.23
2019-05-26T20:35:28.000Z,16.93
2019-05-26T20:37:58.345Z,16.77
2019-05-26T20:40:29.348Z,16.85
2019-05-26T20:42:59.702Z,16.70
2019-05-26T20:45:30.217Z,17.48
2019-05-26T20:48:00.788Z,16.75
2019-05-26T20:50:31.133Z,17.02
2019-05-26T20:53:01.438Z,17.10
2019-05-26T20:55:31.861Z,17.67
2019-05-26T20:58:02.125Z,18.23
2019-05-26T21:00:32.396Z,18.10
2019-05-26T21:03:02.835Z,18.23
2019-05-26T21:05:33.054Z,17.60
2019-05-26T21:08:03.135Z,18.17
2019-05-26T21:10:33.400Z,17.92
2019-05-26T21:13:03.657Z,17.60
2019-05-26T21:15:34.194Z,18.40
2019-05-26T21:18:04.772Z,18.98
2019-05-26T21:20:35.003Z,18.07
2019-05-26T21:23:05.643Z,18.70
2019-05-26T21:25:35.865Z,18.10
2019-05-26T21:28:06.187Z,18.75
2019-05-26T21:30:37.216Z,18.37
2019-05-26T21:33:07.449Z,18.23
2019-05-26T21:35:38.006Z,18.40
2019-05-26T21:38:08.230Z,19.02
2019-05-26T21:40:38.656Z,18.57
2019-05-26T21:43:09.183Z,18.90
2019-05-26T21:45:39.604Z,19.73
2019-05-26T21:48:10.117Z,19.17
2019-05-26T21:50:40.872Z,18.57
2019-05-26T21:53:11.077Z,19.30
2019-05-26T21:55:41.598Z,18.65
2019-05-26T21:58:11.804Z,18.82
2019-05-26T22:00:43.489Z,19.45
2019-05-26T22:03:14.102Z,18.90
2019-05-26T22:05:44.244Z,18.95
2019-05-26T22:08:14.622Z,18.63
2019-05-26T22:10:44.849Z,19.07
2019-05-26T22:13:15.137Z,19.42
2019-05-26T22:15:45.370Z,19.37
2019-05-26T22:18:15.873Z,19.92
2019-05-26T22:20:46.227Z,19.33
2019-05-26T22:23:16.333Z,19.45
2019-05-26T22:25:46.876Z,19.70
2019-05-26T22:28:17.112Z,20.17
2019-05-26T22:30:47.513Z,20.35
2019-05-26T22:33:18.178Z,20.20
2019-05-26T22:35:48.519Z,20.12
2019-05-26T22:38:18.779Z,20.27
2019-05-26T22:40:49.203Z,19.97
2019-05-26T22:43:19.493Z,19.45
2019-05-26T22:45:49.881Z,20.23
2019-05-26T22:48:20.399Z,19.63
2019-05-26T22:50:50.937Z,19.57
2019-05-26T22:53:21.291Z,20.23
2019-05-26T22:55:51.713Z,18.80
2019-05-26T22:58:21.952Z,19.55
2019-05-26T23:00:52.311Z,19.67
2019-05-26T23:03:22.694Z,19.87
2019-05-26T23:05:53.148Z,19.02
2019-05-26T23:08:23.358Z,18.60
2019-05-26T23:10:53.702Z,19.62
2019-05-26T23:13:24.036Z,19.92
2019-05-26T23:15:54.383Z,19.13
2019-05-26T23:18:24.691Z,18.75
2019-05-26T23:20:55.069Z,18.77
2019-05-26T23:23:25.487Z,18.90
2019-05-26T23:25:55.771Z,19.05
2019-05-26T23:28:26.033Z,18.63
2019-05-26T23:30:56.441Z,18.05
2019-05-26T23:33:26.489Z,19.32
2019-05-26T23:35:56.786Z,19.12
2019-05-26T23:38:27.116Z,18.50
2019-05-26T23:40:57.532Z,18.90
2019-05-26T23:43:27.854Z,18.30
2019-05-26T23:45:58.246Z,18.27
2019-05-26T23:48:28.781Z,18.52
2019-05-26T23:50:58.884Z,17.90
2019-05-26T23:53:29.523Z,17.60
2019-05-26T23:55:59.647Z,17.07
2019-05-26T23:58:30.314Z,16.47
